アシガバート の空港の天気 - METARとTAF

アシガバート空港 ( UTAA / ASB ) - トルクメニスタン アシガバート
飛行場実況気象(Metar)
観測時間04/21 21:00 TMT (04/21 16:00 UTC)
風向・風速南南東 3m/s
視程10km以上
天気現象
全天を覆う雲 雲底高度 790m
気温13℃
湿度82%
気圧1020hPa
METARUTAA 211600Z 15006KT 9999 OVC026 13/10 Q1020 R88/70D NOSIG
過去の天気等 Google飛行場航空写真 Wunderground天気予報

過去48時間のMETAR

飛行場予報(TAF)
発表時間: 4/21 15:40 TMT (4/21 10:40 UTC)
予報対象時間: 21日17時 TMT ~ 22日17時 TMT
風向・風速東 8m/s
視程6000m
全天の8割程度の雲 雲底高度 610m
全天の4割程度の積乱雲 雲底高度 910m
21日17時 TMT ~ 21日21時 TMT に一時的に
風向・風速北 8m/s
21日21時 TMT ~ 21日22時 TMT に徐々に
全天の8割程度の雲 雲底高度 210m
22日2時 TMT ~ 22日10時 TMT に一時的に
視程2000m
天気現象もや 弱い霧雨
全天の8割程度の雲 雲底高度 120m
22日4時 TMT ~ 22日8時 TMT に 確率 40% で一時的に
視程500m
天気現象
全天を覆う雲 鉛直視程 60m
TAF UTAA 211040Z 2112/2212 08016KT 6000 BKN020 SCT030CB 530009
TEMPO 2112/2116 01016KT
BECMG 2116/2117 BKN007
TEMPO 2121/2205 2000 BR -DZ BKN004
PROB40 TEMPO 2123/2203 0500 FG VV002